createdAt,value
2018-09-04T00:00:46.335Z,12.92
2018-09-04T00:03:19.762Z,12.90
2018-09-04T00:05:49.954Z,12.90
2018-09-04T00:08:19.979Z,12.85
2018-09-04T00:10:50.279Z,12.85
2018-09-04T00:13:20.391Z,12.84
2018-09-04T00:15:50.842Z,12.81
2018-09-04T00:18:20.880Z,12.73
2018-09-04T00:20:51.015Z,12.75
2018-09-04T00:23:21.826Z,12.70
2018-09-04T00:25:52.354Z,12.68
2018-09-04T00:28:22.458Z,12.67
2018-09-04T00:30:52.809Z,12.58
2018-09-04T00:33:35.906Z,12.48
2018-09-04T00:36:06.082Z,12.41
2018-09-04T00:38:36.114Z,12.33
2018-09-04T00:41:06.422Z,12.33
2018-09-04T00:43:36.876Z,12.35
2018-09-04T00:46:06.964Z,12.34
2018-09-04T00:48:37.369Z,12.31
2018-09-04T00:51:06.987Z,12.33
2018-09-04T00:53:37.007Z,12.39
2018-09-04T00:56:06.970Z,12.42
2018-09-04T00:58:37.053Z,12.45
2018-09-04T01:01:07.040Z,12.40
2018-09-04T01:03:37.626Z,12.39
2018-09-04T01:06:08.046Z,12.38
2018-09-04T01:08:38.230Z,12.33
2018-09-04T01:11:08.535Z,12.20
2018-09-04T01:13:46.110Z,12.10
2018-09-04T01:16:17.151Z,12.14
2018-09-04T01:18:48.006Z,12.05
2018-09-04T01:21:18.593Z,12.09
2018-09-04T01:23:49.178Z,12.12
2018-09-04T01:26:19.596Z,12.16
2018-09-04T01:28:50.057Z,12.18
2018-09-04T01:31:20.154Z,12.21
2018-09-04T01:33:50.308Z,12.20
2018-09-04T01:36:20.683Z,12.17
2018-09-04T01:38:50.724Z,12.09
2018-09-04T01:41:21.058Z,12.07
2018-09-04T01:43:51.774Z,12.17
2018-09-04T01:46:22.137Z,12.18
2018-09-04T01:48:53.251Z,12.15
2018-09-04T01:51:23.363Z,12.14
2018-09-04T01:53:53.353Z,12.17
2018-09-04T01:56:23.448Z,12.16
2018-09-04T01:58:53.769Z,12.16
2018-09-04T02:01:23.836Z,12.12
2018-09-04T02:03:54.171Z,12.12
2018-09-04T02:06:24.321Z,12.12
2018-09-04T02:08:54.349Z,12.12
2018-09-04T02:11:24.375Z,12.08
2018-09-04T02:13:54.842Z,12.08
2018-09-04T02:16:25.323Z,11.98
2018-09-04T02:18:55.327Z,11.87
2018-09-04T02:21:25.482Z,11.78
2018-09-04T02:23:55.582Z,11.72
2018-09-04T02:26:25.649Z,11.63
2018-09-04T02:28:55.891Z,11.63
2018-09-04T02:31:26.014Z,11.61
2018-09-04T02:33:56.366Z,11.60
2018-09-04T02:36:26.490Z,11.58
2018-09-04T02:38:56.825Z,11.53
2018-09-04T02:41:27.011Z,11.51
2018-09-04T02:43:57.386Z,11.50
2018-09-04T02:46:27.665Z,11.44
2018-09-04T02:48:57.724Z,11.44
2018-09-04T02:51:28.035Z,11.56
2018-09-04T02:53:58.387Z,11.66
2018-09-04T02:56:28.637Z,11.77
2018-09-04T02:58:59.062Z,11.73
2018-09-04T03:01:29.466Z,11.70
2018-09-04T03:03:59.968Z,11.72
2018-09-04T03:06:30.129Z,11.78
2018-09-04T03:09:00.554Z,11.83
2018-09-04T03:11:30.790Z,11.84
2018-09-04T03:14:01.197Z,11.83
2018-09-04T03:16:31.298Z,11.81
2018-09-04T03:19:01.561Z,11.79
2018-09-04T03:21:31.746Z,11.73
2018-09-04T03:24:01.676Z,11.65
2018-09-04T03:26:31.788Z,11.66
2018-09-04T03:29:02.103Z,11.65
2018-09-04T03:31:32.198Z,11.65
2018-09-04T03:34:02.697Z,11.72
2018-09-04T03:36:32.820Z,11.72
2018-09-04T03:39:03.127Z,11.70
2018-09-04T03:41:32.951Z,11.65
2018-09-04T03:44:03.299Z,11.65
2018-09-04T03:46:33.348Z,11.62
2018-09-04T03:49:15.269Z,11.60
2018-09-04T03:51:46.745Z,11.61
2018-09-04T03:54:16.943Z,11.62
2018-09-04T03:56:47.348Z,11.64
2018-09-04T03:59:17.359Z,11.74
2018-09-04T04:01:47.811Z,11.60
2018-09-04T04:04:42.918Z,11.44
2018-09-04T04:07:12.985Z,11.29
2018-09-04T04:09:43.047Z,11.19
2018-09-04T04:12:12.987Z,11.21
2018-09-04T04:14:42.940Z,11.42
2018-09-04T04:17:13.356Z,11.70
2018-09-04T04:19:43.880Z,11.86
2018-09-04T04:22:14.350Z,11.94
2018-09-04T04:24:44.542Z,11.89
2018-09-04T04:27:14.964Z,11.88
2018-09-04T04:29:45.367Z,11.83
2018-09-04T04:32:15.202Z,11.82
2018-09-04T04:34:46.568Z,12.06
2018-09-04T04:37:16.967Z,12.07
2018-09-04T04:39:47.283Z,12.27
2018-09-04T04:42:17.527Z,12.34
2018-09-04T04:44:47.959Z,12.41
2018-09-04T04:47:22.274Z,12.67
2018-09-04T04:49:52.597Z,12.79
2018-09-04T04:52:22.999Z,12.84
2018-09-04T04:54:53.484Z,12.88
2018-09-04T04:57:23.277Z,12.93
2018-09-04T04:59:54.030Z,13.09
2018-09-04T05:02:24.315Z,13.20
2018-09-04T05:04:57.710Z,13.36
2018-09-04T05:07:28.060Z,13.43
2018-09-04T05:09:58.295Z,13.49
2018-09-04T05:12:28.565Z,13.54
2018-09-04T05:14:58.671Z,13.61
2018-09-04T05:17:29.138Z,13.68
2018-09-04T05:19:59.367Z,13.73
2018-09-04T05:22:29.461Z,13.82
2018-09-04T05:24:59.484Z,13.92
2018-09-04T05:27:29.493Z,13.97
2018-09-04T05:29:59.886Z,14.07
2018-09-04T05:32:35.225Z,14.16
2018-09-04T05:35:05.914Z,14.21
2018-09-04T05:37:35.885Z,14.34
2018-09-04T05:40:05.901Z,14.45
2018-09-04T05:42:40.248Z,14.58
2018-09-04T05:45:10.460Z,14.70
2018-09-04T05:47:41.434Z,14.76
2018-09-04T05:50:11.554Z,14.86
2018-09-04T05:52:41.329Z,14.91
2018-09-04T05:55:11.440Z,15.05
2018-09-04T05:57:41.322Z,15.16
2018-09-04T06:00:15.877Z,15.36
2018-09-04T06:02:45.437Z,15.81
2018-09-04T06:05:15.348Z,16.06
2018-09-04T06:07:45.401Z,16.13
2018-09-04T06:10:15.361Z,16.10
2018-09-04T06:12:45.369Z,16.24
2018-09-04T06:15:15.381Z,16.50
2018-09-04T06:17:45.438Z,16.52
2018-09-04T06:20:15.400Z,16.55
2018-09-04T06:22:45.424Z,16.40
2018-09-04T06:25:15.437Z,16.50
2018-09-04T06:28:01.749Z,16.63
2018-09-04T06:30:31.601Z,16.34
2018-09-04T06:33:01.602Z,16.41
2018-09-04T06:35:31.518Z,16.59
2018-09-04T06:38:01.537Z,16.72
2018-09-04T06:40:31.527Z,16.77
2018-09-04T06:43:01.533Z,16.80
2018-09-04T06:45:31.545Z,16.77
2018-09-04T06:48:01.181Z,16.95
2018-09-04T06:50:30.764Z,17.13
2018-09-04T06:53:00.666Z,17.24
2018-09-04T06:55:30.592Z,16.98
2018-09-04T06:58:00.664Z,16.95
2018-09-04T07:00:30.581Z,17.03
2018-09-04T07:03:00.194Z,16.73
2018-09-04T07:05:29.768Z,16.38
2018-09-04T07:07:59.718Z,16.18
2018-09-04T07:10:29.661Z,16.16
2018-09-04T07:12:59.684Z,16.39
2018-09-04T07:15:29.721Z,16.71
2018-09-04T07:18:07.306Z,16.49
2018-09-04T07:20:36.903Z,16.18
2018-09-04T07:23:06.826Z,16.38
2018-09-04T07:25:44.888Z,16.36
2018-09-04T07:28:14.721Z,16.96
2018-09-04T07:30:44.821Z,17.25
2018-09-04T07:33:14.773Z,17.24
2018-09-04T07:35:45.330Z,17.06
2018-09-04T07:38:14.850Z,17.02
2018-09-04T07:40:44.794Z,17.18
2018-09-04T07:43:14.426Z,17.34
2018-09-04T07:45:44.417Z,17.35
2018-09-04T07:48:14.014Z,17.60
2018-09-04T07:50:43.993Z,17.73
2018-09-04T07:53:13.925Z,18.05
2018-09-04T07:55:43.927Z,17.76
2018-09-04T07:58:14.939Z,17.61
2018-09-04T08:00:45.108Z,17.73
2018-09-04T08:03:15.022Z,18.07
2018-09-04T08:05:45.146Z,18.40
2018-09-04T08:08:14.982Z,18.53
2018-09-04T08:10:44.932Z,18.44
2018-09-04T08:13:14.929Z,18.18
2018-09-04T08:15:44.957Z,18.15
2018-09-04T08:18:14.981Z,18.68
2018-09-04T08:20:45.050Z,19.12
2018-09-04T08:23:14.994Z,18.84
2018-09-04T08:25:45.001Z,18.95
2018-09-04T08:28:14.973Z,18.97
2018-09-04T08:30:45.029Z,19.52
2018-09-04T08:33:15.090Z,20.27
2018-09-04T08:35:45.046Z,22.16
2018-09-04T08:38:15.105Z,23.30
2018-09-04T08:40:45.136Z,23.37
2018-09-04T08:43:15.235Z,21.67
2018-09-04T08:45:45.672Z,22.10
2018-09-04T08:48:20.687Z,23.78
2018-09-04T08:50:50.258Z,25.58
2018-09-04T08:53:20.182Z,27.03
2018-09-04T08:55:50.153Z,25.76
2018-09-04T08:58:20.207Z,26.61
2018-09-04T09:00:50.169Z,25.92
2018-09-04T09:03:20.230Z,26.33
2018-09-04T09:05:50.212Z,27.43
2018-09-04T09:08:43.357Z,26.47
2018-09-04T09:11:13.437Z,27.35
2018-09-04T09:13:43.250Z,27.12
2018-09-04T09:16:12.844Z,28.02
2018-09-04T09:18:42.329Z,27.90
2018-09-04T09:21:12.271Z,29.15
2018-09-04T09:26:45.896Z,28.77
2018-09-04T09:29:15.431Z,28.86
2018-09-04T09:31:45.309Z,29.63
2018-09-04T09:34:15.366Z,29.16
2018-09-04T09:36:45.544Z,30.61
2018-09-04T09:39:15.393Z,31.27
2018-09-04T09:41:45.608Z,31.78
2018-09-04T09:44:17.371Z,29.27
2018-09-04T09:46:48.045Z,31.02
2018-09-04T09:49:19.527Z,30.82
2018-09-04T09:51:49.621Z,31.11
2018-09-04T09:54:19.619Z,30.75
2018-09-04T09:56:49.438Z,32.60
2018-09-04T09:59:20.462Z,29.27
2018-09-04T10:01:57.876Z,30.82
2018-09-04T10:04:28.033Z,31.20
2018-09-04T10:06:58.065Z,31.43
2018-09-04T10:09:28.062Z,32.77
2018-09-04T10:11:57.577Z,33.31
2018-09-04T10:14:27.596Z,31.96
2018-09-04T10:16:57.608Z,31.79
2018-09-04T10:19:27.582Z,33.27
2018-09-04T10:21:57.797Z,33.68
2018-09-04T10:24:27.805Z,31.97
2018-09-04T10:26:58.541Z,31.86
2018-09-04T10:29:28.616Z,31.15
2018-09-04T10:31:58.772Z,29.91
2018-09-04T10:34:29.657Z,31.25
2018-09-04T10:37:02.186Z,32.08
2018-09-04T10:39:37.261Z,30.71
2018-09-04T10:42:23.616Z,32.43
2018-09-04T10:44:53.097Z,33.30
2018-09-04T10:47:23.652Z,33.23
2018-09-04T10:49:59.893Z,33.15
2018-09-04T10:52:29.729Z,34.58
2018-09-04T10:54:59.101Z,34.55
2018-09-04T10:57:28.933Z,34.23
2018-09-04T10:59:58.257Z,34.94
2018-09-04T11:02:27.740Z,33.43
2018-09-04T11:05:03.225Z,33.56
2018-09-04T11:07:33.010Z,33.53
2018-09-04T11:10:03.404Z,29.61
2018-09-04T11:12:33.206Z,30.39
2018-09-04T11:15:03.412Z,32.14
2018-09-04T11:17:33.265Z,34.29
2018-09-04T11:20:04.104Z,34.35
2018-09-04T11:22:34.838Z,35.35
2018-09-04T11:25:04.484Z,33.21
2018-09-04T11:27:34.486Z,34.44
2018-09-04T11:30:04.530Z,33.21
2018-09-04T11:32:34.358Z,34.32
2018-09-04T11:35:04.115Z,34.57
2018-09-04T11:37:34.374Z,34.99
2018-09-04T11:40:04.143Z,34.34
2018-09-04T11:42:38.058Z,32.71
2018-09-04T11:45:15.090Z,31.06
2018-09-04T11:47:44.681Z,31.54
2018-09-04T11:50:14.570Z,28.37
2018-09-04T11:52:44.417Z,29.16
2018-09-04T11:55:14.801Z,28.82
2018-09-04T11:57:45.160Z,29.40
2018-09-04T12:00:18.994Z,29.48
2018-09-04T12:02:50.121Z,30.50
2018-09-04T12:05:20.672Z,29.50
2018-09-04T12:07:51.163Z,31.09
2018-09-04T12:10:22.096Z,32.42
2018-09-04T12:12:52.412Z,31.97
2018-09-04T12:15:23.207Z,32.23
2018-09-04T12:17:56.739Z,33.02
2018-09-04T12:20:39.759Z,32.78
2018-09-04T12:23:09.757Z,31.56
2018-09-04T12:25:40.637Z,34.49
2018-09-04T12:28:11.380Z,34.56
2018-09-04T12:30:42.322Z,34.97
2018-09-04T12:33:17.427Z,33.82
2018-09-04T12:35:47.518Z,36.64
2018-09-04T12:38:18.933Z,35.74
2018-09-04T12:40:49.850Z,35.12
2018-09-04T12:43:19.844Z,36.07
2018-09-04T12:45:50.286Z,36.79
2018-09-04T12:48:24.092Z,34.63
2018-09-04T12:50:55.520Z,31.89
2018-09-04T12:53:26.379Z,34.07
2018-09-04T12:55:56.412Z,33.21
2018-09-04T12:58:26.464Z,33.55
2018-09-04T13:00:57.387Z,36.35
2018-09-04T13:03:28.932Z,38.30
2018-09-04T13:05:59.026Z,38.04
2018-09-04T13:08:30.570Z,35.32
2018-09-04T13:11:00.426Z,34.92
2018-09-04T13:13:30.645Z,34.66
2018-09-04T13:16:01.524Z,36.75
2018-09-04T13:18:31.644Z,37.88
2018-09-04T13:21:02.625Z,38.47
2018-09-04T13:23:34.499Z,38.34
2018-09-04T13:26:05.050Z,36.78
2018-09-04T13:28:35.587Z,36.26
2018-09-04T13:31:05.633Z,35.99
2018-09-04T13:33:36.091Z,35.66
2018-09-04T13:36:06.538Z,37.09
2018-09-04T13:38:37.316Z,37.07
2018-09-04T13:41:08.126Z,36.40
2018-09-04T13:43:39.654Z,35.24
2018-09-04T13:46:10.231Z,34.33
2018-09-04T13:48:40.683Z,37.36
2018-09-04T13:51:10.780Z,37.71
2018-09-04T13:53:40.771Z,36.63
2018-09-04T13:56:10.774Z,36.82
2018-09-04T13:58:40.913Z,37.71
2018-09-04T14:01:11.202Z,36.31
2018-09-04T14:03:41.351Z,34.27
2018-09-04T14:06:11.728Z,33.23
2018-09-04T14:08:42.360Z,36.72
2018-09-04T14:11:12.742Z,37.52
2018-09-04T14:13:43.021Z,37.35
2018-09-04T14:16:16.758Z,35.52
2018-09-04T14:18:47.320Z,36.42
2018-09-04T14:21:17.399Z,37.19
2018-09-04T14:23:47.903Z,37.94
2018-09-04T14:26:19.987Z,37.32
2018-09-04T14:29:06.424Z,36.50
2018-09-04T14:31:21.372Z,34.59
2018-09-04T14:33:51.598Z,33.10
2018-09-04T14:36:22.947Z,31.36
2018-09-04T14:38:53.500Z,31.23
2018-09-04T14:41:24.523Z,31.90
2018-09-04T14:43:54.870Z,32.22
2018-09-04T14:46:25.098Z,29.89
2018-09-04T14:49:19.088Z,30.65
2018-09-04T14:51:49.123Z,28.41
2018-09-04T14:54:19.039Z,29.32
2018-09-04T14:56:49.465Z,28.77
2018-09-04T14:59:19.972Z,29.30
2018-09-04T15:01:50.131Z,28.04
2018-09-04T15:04:22.093Z,28.20
2018-09-04T15:07:06.208Z,28.09
2018-09-04T15:09:36.258Z,28.36
2018-09-04T15:12:06.731Z,28.63
2018-09-04T15:14:37.198Z,28.40
2018-09-04T15:17:08.055Z,28.06
2018-09-04T15:19:38.328Z,27.92
2018-09-04T15:22:09.089Z,27.38
2018-09-04T15:24:40.068Z,27.56
2018-09-04T15:27:10.212Z,28.12
2018-09-04T15:29:40.558Z,27.98
2018-09-04T15:32:10.869Z,27.28
2018-09-04T15:34:41.101Z,26.71
2018-09-04T15:37:11.719Z,26.08
2018-09-04T15:39:41.785Z,26.30
2018-09-04T15:42:11.754Z,27.15
2018-09-04T15:44:41.791Z,26.87
2018-09-04T15:47:11.810Z,27.42
2018-09-04T15:49:47.116Z,27.82
2018-09-04T15:52:17.825Z,27.76
2018-09-04T15:54:47.872Z,27.03
2018-09-04T15:57:19.415Z,27.29
2018-09-04T15:59:49.878Z,27.77
2018-09-04T16:02:19.867Z,27.99
2018-09-04T16:04:50.524Z,28.89
2018-09-04T16:07:20.572Z,29.68
2018-09-04T16:09:50.655Z,29.42
2018-09-04T16:12:20.883Z,31.83
2018-09-04T16:14:50.932Z,31.94
2018-09-04T16:17:21.356Z,32.22
2018-09-04T16:19:51.828Z,31.79
2018-09-04T16:22:21.662Z,31.92
2018-09-04T16:24:52.079Z,33.17
2018-09-04T16:27:22.098Z,33.72
2018-09-04T16:29:52.064Z,34.37
2018-09-04T16:32:22.459Z,34.00
2018-09-04T16:34:52.203Z,33.68
2018-09-04T16:37:21.647Z,32.97
2018-09-04T16:39:51.309Z,31.68
2018-09-04T16:42:20.942Z,32.01
2018-09-04T16:44:50.595Z,31.64
2018-09-04T16:47:20.375Z,32.33
2018-09-04T16:49:55.887Z,31.82
2018-09-04T16:52:25.788Z,31.46
2018-09-04T16:54:55.766Z,31.10
2018-09-04T16:57:25.676Z,30.34
2018-09-04T16:59:55.293Z,29.41
2018-09-04T17:02:25.030Z,27.67
2018-09-04T17:04:54.837Z,26.81
2018-09-04T17:07:24.667Z,26.16
2018-09-04T17:09:55.620Z,25.26
2018-09-04T17:12:25.730Z,24.25
2018-09-04T17:14:55.338Z,23.68
2018-09-04T17:17:25.592Z,23.55
2018-09-04T17:19:55.205Z,23.48
2018-09-04T17:22:28.867Z,23.55
2018-09-04T17:24:59.043Z,23.51
2018-09-04T17:27:29.715Z,23.35
2018-09-04T17:29:59.598Z,23.24
2018-09-04T17:32:29.306Z,23.06
2018-09-04T17:34:58.974Z,23.01
2018-09-04T17:37:28.658Z,22.88
2018-09-04T17:40:06.631Z,22.72
2018-09-04T17:42:37.159Z,22.58
2018-09-04T17:45:06.902Z,22.43
2018-09-04T17:47:36.594Z,22.28
2018-09-04T17:50:06.324Z,22.03
2018-09-04T17:52:36.186Z,21.72
2018-09-04T17:55:06.133Z,21.54
2018-09-04T17:57:35.867Z,21.36
2018-09-04T18:00:06.322Z,21.16
2018-09-04T18:02:38.110Z,20.96
2018-09-04T18:05:07.802Z,20.76
2018-09-04T18:07:37.718Z,20.60
2018-09-04T18:10:08.540Z,20.47
2018-09-04T18:12:44.981Z,20.33
2018-09-04T18:15:15.463Z,20.23
2018-09-04T18:17:46.833Z,20.14
2018-09-04T18:20:17.214Z,20.04
2018-09-04T18:22:48.237Z,19.92
2018-09-04T18:25:19.518Z,19.79
2018-09-04T18:27:51.987Z,19.65
2018-09-04T18:30:22.566Z,19.55
2018-09-04T18:32:52.530Z,19.47
2018-09-04T18:35:22.615Z,19.35
2018-09-04T18:37:53.142Z,19.27
2018-09-04T18:40:23.238Z,19.16
2018-09-04T18:42:52.897Z,19.03
2018-09-04T18:45:54.156Z,18.95
2018-09-04T18:48:25.540Z,18.84
2018-09-04T18:51:01.898Z,18.75
2018-09-04T18:53:31.516Z,18.64
2018-09-04T18:56:01.179Z,18.56
2018-09-04T18:58:31.053Z,18.44
2018-09-04T19:01:02.201Z,18.32
2018-09-04T19:03:32.293Z,18.27
2018-09-04T19:06:02.014Z,18.21
2018-09-04T19:08:32.106Z,18.14
2018-09-04T19:11:01.877Z,18.10
2018-09-04T19:13:31.591Z,18.01
2018-09-04T19:16:01.606Z,17.93
2018-09-04T19:18:31.611Z,17.84
2018-09-04T19:21:01.434Z,17.81
2018-09-04T19:23:31.114Z,17.77
2018-09-04T19:26:00.860Z,17.73
2018-09-04T19:28:30.697Z,17.70
2018-09-04T19:31:00.441Z,17.66
2018-09-04T19:33:31.420Z,17.63
2018-09-04T19:36:03.190Z,17.62
2018-09-04T19:38:33.065Z,17.61
2018-09-04T19:41:02.779Z,17.57
2018-09-04T19:43:32.494Z,17.53
2018-09-04T19:46:02.197Z,17.51
2018-09-04T19:48:31.918Z,17.52
2018-09-04T19:51:01.803Z,17.50
2018-09-04T19:53:31.547Z,17.50
2018-09-04T19:56:01.271Z,17.40
2018-09-04T19:58:31.019Z,17.29
2018-09-04T20:01:00.935Z,17.26
2018-09-04T20:03:30.656Z,17.18
2018-09-04T20:06:00.466Z,17.24
2018-09-04T20:08:30.684Z,17.33
2018-09-04T20:11:00.506Z,17.33
2018-09-04T20:13:30.554Z,17.30
2018-09-04T20:16:12.106Z,17.27
2018-09-04T20:18:53.265Z,17.11
2018-09-04T20:21:24.176Z,17.00
2018-09-04T20:23:53.925Z,16.96
2018-09-04T20:26:24.057Z,16.96
2018-09-04T20:28:55.248Z,16.98
2018-09-04T20:31:26.010Z,16.99
2018-09-04T20:33:55.619Z,16.98
2018-09-04T20:36:26.983Z,16.97
2018-09-04T20:38:57.419Z,16.99
2018-09-04T20:41:27.266Z,16.86
2018-09-04T20:44:05.072Z,16.75
2018-09-04T20:46:35.772Z,16.73
2018-09-04T20:49:06.058Z,16.73
2018-09-04T20:51:35.972Z,16.73
2018-09-04T20:54:07.553Z,16.74
2018-09-04T20:56:37.310Z,16.73
2018-09-04T20:59:24.680Z,16.67
2018-09-04T21:02:17.450Z,16.61
2018-09-04T21:05:04.023Z,16.53
2018-09-04T21:07:58.156Z,16.46
2018-09-04T21:10:28.076Z,16.40
2018-09-04T21:12:58.208Z,16.35
2018-09-04T21:15:28.847Z,16.29
2018-09-04T21:17:58.668Z,16.25
2018-09-04T21:20:28.482Z,16.17
2018-09-04T21:22:58.262Z,16.11
2018-09-04T21:25:28.214Z,16.06
2018-09-04T21:27:59.244Z,15.99
2018-09-04T21:30:29.380Z,15.91
2018-09-04T21:33:01.037Z,15.90
2018-09-04T21:35:30.906Z,15.86
2018-09-04T21:38:00.835Z,15.82
2018-09-04T21:40:34.899Z,15.80
2018-09-04T21:43:04.639Z,15.78
2018-09-04T21:45:34.394Z,15.75
2018-09-04T21:48:16.119Z,15.76
2018-09-04T21:50:45.970Z,15.77
2018-09-04T21:53:17.464Z,15.75
2018-09-04T21:55:47.471Z,15.76
2018-09-04T21:58:17.255Z,15.78
2018-09-04T22:00:47.594Z,15.78
2018-09-04T22:03:18.963Z,15.74
2018-09-04T22:05:48.819Z,15.71
2018-09-04T22:08:19.039Z,15.69
2018-09-04T22:10:48.855Z,15.69
2018-09-04T22:13:22.059Z,15.62
2018-09-04T22:15:52.665Z,15.60
2018-09-04T22:18:23.101Z,15.56
2018-09-04T22:20:53.262Z,15.49
2018-09-04T22:23:24.688Z,15.35
2018-09-04T22:25:55.199Z,15.23
2018-09-04T22:28:25.705Z,15.16
2018-09-04T22:30:56.310Z,15.14
2018-09-04T22:33:27.678Z,15.14
2018-09-04T22:35:58.159Z,15.08
2018-09-04T22:38:31.201Z,15.00
2018-09-04T22:41:01.428Z,14.98
2018-09-04T22:43:31.429Z,14.95
2018-09-04T22:46:01.815Z,14.92
2018-09-04T22:48:31.838Z,14.97
2018-09-04T22:51:11.283Z,15.03
2018-09-04T22:53:42.294Z,14.98
2018-09-04T22:56:12.843Z,14.81
2018-09-04T22:59:06.259Z,14.70
2018-09-04T23:01:36.942Z,14.67
2018-09-04T23:04:07.331Z,14.73
2018-09-04T23:06:44.935Z,14.81
2018-09-04T23:09:15.499Z,14.87
2018-09-04T23:11:45.926Z,14.94
2018-09-04T23:14:16.300Z,14.96
2018-09-04T23:16:46.542Z,14.87
2018-09-04T23:19:16.964Z,14.80
2018-09-04T23:21:47.471Z,14.82
2018-09-04T23:24:17.985Z,14.91
2018-09-04T23:26:49.768Z,14.95
2018-09-04T23:29:20.483Z,14.91
2018-09-04T23:31:51.062Z,14.95
2018-09-04T23:34:27.459Z,14.86
2018-09-04T23:36:57.205Z,14.65
2018-09-04T23:39:26.882Z,14.56
2018-09-04T23:41:56.849Z,14.55
2018-09-04T23:44:26.515Z,14.53
2018-09-04T23:46:56.334Z,14.57
2018-09-04T23:49:26.102Z,14.65
2018-09-04T23:51:55.810Z,14.79
2018-09-04T23:54:25.651Z,14.85
2018-09-04T23:56:55.553Z,14.62
2018-09-04T23:59:25.234Z,14.51
